Terminal Aerodrome Forecast
Issued by NWS

Home | Current Version | Previous Version | Graphics & Text | Print | Product List | Glossary On
Versions: 1 2 3 4 5 6 7 8 9 10 11 12 13 14 15 16
764
FTUS42 KMHX 041140
TAFOAJ
TAF
KOAJ 041140Z 0412/0512 15008G15KT 6SM -RA BKN005 OVC030
     FM041400 19008KT 4SM -RA OVC007
     FM041700 24007KT 4SM -RA OVC007
     FM042000 33006KT 4SM -RA BR OVC005
     FM050600 36015G21KT 6SM -RA BR OVC007
      AMD LTD TO CLD VIS AND WIND=

USA.gov is the U.S. government's official web portal to all federal, state and local government web resources and services.